Time;durP1;ratioP1;P1;durP2;ratioP2;P2;SDS_P1;SDS_P2;PMS_P1;PMS_P2;Temp;Humidity;BMP_temperature;BMP_pressure;BME280_temperature;BME280_humidity;BME280_pressure;Samples;Min_cycle;Max_cycle;Signal;HPM_P1;HPM_P2
2024/04/11 00:00:39;;;;;;;13.30;6.10;;;;;;;6.32;100.00;102246.22;5445593;26;20563;-87
2024/04/11 00:03:15;;;;;;;12.48;5.78;;;;;;;6.27;100.00;102238.72;5448310;26;20388;-87
2024/04/11 00:05:43;;;;;;;14.47;6.30;;;;;;;6.23;100.00;102245.63;5447140;26;20376;-87
2024/04/11 00:08:13;;;;;;;19.33;6.53;;;;;;;6.25;100.00;102243.53;5458835;26;20376;-86
2024/04/11 00:10:41;;;;;;;14.47;7.40;;;;;;;6.26;100.00;102245.19;5443760;26;20451;-87
2024/04/11 00:13:11;;;;;;;13.82;6.65;;;;;;;6.25;100.00;102240.81;5447989;26;20373;-86
2024/04/11 00:15:39;;;;;;;13.40;6.75;;;;;;;6.21;100.00;102234.19;5445811;26;21047;-86
2024/04/11 00:18:09;;;;;;;14.02;6.75;;;;;;;6.20;100.00;102232.50;5443006;26;20360;-87
2024/04/11 00:20:40;;;;;;;13.43;6.80;;;;;;;6.19;100.00;102230.88;5447230;26;20368;-86
2024/04/11 00:23:10;;;;;;;12.95;6.50;;;;;;;6.16;100.00;102236.69;5447106;26;21188;-87
2024/04/11 00:25:38;;;;;;;12.50;6.30;;;;;;;6.08;100.00;102221.53;5448475;26;20360;-87
2024/04/11 00:28:09;;;;;;;12.63;6.70;;;;;;;6.04;100.00;102215.72;5448616;26;20778;-87
2024/04/11 00:30:36;;;;;;;13.57;6.30;;;;;;;6.08;100.00;102225.06;5442968;26;20372;-86
2024/04/11 00:33:07;;;;;;;13.25;6.57;;;;;;;6.05;100.00;102221.94;5446979;26;20382;-86
2024/04/11 00:35:35;;;;;;;11.68;6.50;;;;;;;6.03;100.00;102224.03;5445322;26;20375;-86
2024/04/11 00:38:10;;;;;;;15.82;7.03;;;;;;;6.01;100.00;102223.41;5440774;26;20400;-87
2024/04/11 00:40:37;;;;;;;13.80;6.22;;;;;;;5.97;100.00;102220.28;5448791;26;20368;-86
2024/04/11 00:43:10;;;;;;;12.52;6.45;;;;;;;5.92;100.00;102222.78;5448858;26;20381;-86
2024/04/11 00:45:43;;;;;;;12.60;6.47;;;;;;;5.92;100.00;102217.38;5445302;26;20373;-86
2024/04/11 00:48:13;;;;;;;14.25;6.65;;;;;;;5.94;100.00;102208.03;5447044;26;20380;-86
2024/04/11 00:50:42;;;;;;;14.70;6.78;;;;;;;5.92;100.00;102202.00;5448101;26;20912;-88
2024/04/11 00:53:15;;;;;;;14.30;7.00;;;;;;;6.02;100.00;102211.56;5445734;26;20372;-87
2024/04/11 00:55:43;;;;;;;13.80;7.25;;;;;;;5.98;100.00;102205.78;5442884;26;20364;-86
2024/04/11 00:58:14;;;;;;;13.98;7.20;;;;;;;5.98;100.00;102200.38;5446717;26;20401;-86
2024/04/11 01:00:42;;;;;;;14.90;7.50;;;;;;;5.99;100.00;102182.28;5447277;26;20918;-87
2024/04/11 01:03:12;;;;;;;13.93;7.00;;;;;;;6.01;100.00;102181.03;5464481;26;20920;-87
2024/04/11 01:05:40;;;;;;;15.52;7.50;;;;;;;6.01;100.00;102182.88;5444267;26;20402;-87
2024/04/11 01:08:10;;;;;;;13.27;7.60;;;;;;;6.01;100.00;102190.97;5445271;26;20372;-87
2024/04/11 01:10:40;;;;;;;15.45;7.47;;;;;;;6.05;100.00;102198.47;5442788;26;20888;-87
2024/04/11 01:13:11;;;;;;;15.70;7.90;;;;;;;6.15;100.00;102202.59;5445021;26;20905;-87
2024/04/11 01:15:38;;;;;;;19.10;8.02;;;;;;;6.17;100.00;102197.81;5444515;26;20381;-87
2024/04/11 01:18:08;;;;;;;16.65;8.10;;;;;;;6.15;100.00;102200.72;5448175;26;20352;-86
2024/04/11 01:20:36;;;;;;;15.65;8.00;;;;;;;6.18;100.00;102216.50;5457787;26;20382;-86
2024/04/11 01:23:10;;;;;;;14.55;7.75;;;;;;;6.19;100.00;102215.47;5447048;26;20743;-88
2024/04/11 01:25:37;;;;;;;17.65;8.50;;;;;;;6.24;100.00;102225.66;5427994;26;20368;-87
2024/04/11 01:28:09;;;;;;;15.18;8.23;;;;;;;6.32;100.00;102230.81;5441989;26;20365;-87
2024/04/11 01:30:38;;;;;;;16.45;8.13;;;;;;;6.34;100.00;102226.03;5448157;26;20392;-86
2024/04/11 01:33:09;;;;;;;14.55;7.15;;;;;;;6.42;100.00;102217.69;5444642;26;20402;-87
2024/04/11 01:35:37;;;;;;;15.97;7.67;;;;;;;6.45;100.00;102211.03;5447365;26;20384;-86
2024/04/11 01:38:10;;;;;;;14.40;7.38;;;;;;;6.46;100.00;102202.69;5445627;26;20387;-88
2024/04/11 01:40:41;;;;;;;19.27;7.50;;;;;;;6.48;100.00;102210.59;5460300;26;20388;-87
2024/04/11 01:43:11;;;;;;;14.70;7.43;;;;;;;6.48;100.00;102197.06;5444819;26;20483;-87
2024/04/11 01:45:40;;;;;;;16.00;7.47;;;;;;;6.51;100.00;102188.53;5446129;26;20786;-87
2024/04/11 01:48:13;;;;;;;14.93;8.05;;;;;;;6.47;100.00;102190.00;5443730;26;21090;-86
2024/04/11 01:50:41;;;;;;;14.35;7.78;;;;;;;6.49;100.00;102184.38;5441581;26;20396;-85
2024/04/11 01:53:19;;;;;;;14.75;7.50;;;;;;;6.43;100.00;102184.19;5436994;26;20981;-86
2024/04/11 01:55:47;;;;;;;14.73;7.68;;;;;;;6.42;100.00;102176.28;5445310;26;20465;-86
2024/04/11 01:58:18;;;;;;;14.25;7.10;;;;;;;6.35;100.00;102180.91;5443395;26;20332;-85
2024/04/11 02:00:47;;;;;;;14.98;7.65;;;;;;;6.34;100.00;102187.34;5471377;26;20372;-86
2024/04/11 02:03:18;;;;;;;13.18;7.28;;;;;;;6.37;100.00;102181.53;5440071;26;20366;-86
2024/04/11 02:05:47;;;;;;;14.55;7.40;;;;;;;6.34;100.00;102174.66;5445577;26;22405;-88
2024/04/11 02:08:20;;;;;;;17.58;7.40;;;;;;;6.40;100.00;102183.78;5443064;26;20738;-87
2024/04/11 02:10:47;;;;;;;12.17;7.07;;;;;;;6.37;100.00;102181.53;5459241;26;20398;-86
2024/04/11 02:13:17;;;;;;;14.88;7.43;;;;;;;6.34;100.00;102182.78;5446959;26;20919;-86
2024/04/11 02:15:45;;;;;;;16.07;7.40;;;;;;;6.37;100.00;102182.34;5443494;26;20580;-87
2024/04/11 02:18:15;;;;;;;14.32;7.25;;;;;;;6.41;100.00;102190.88;5445878;26;20402;-87
2024/04/11 02:20:43;;;;;;;13.00;7.15;;;;;;;6.40;100.00;102190.03;5446953;26;20380;-87
2024/04/11 02:23:13;;;;;;;18.92;7.88;;;;;;;6.41;100.00;102196.28;5444961;26;20379;-86
2024/04/11 02:25:43;;;;;;;14.77;7.18;;;;;;;6.36;100.00;102193.38;5445668;26;20375;-85
2024/04/11 02:28:13;;;;;;;13.75;6.93;;;;;;;6.35;100.00;102186.31;5440158;26;20401;-86
2024/04/11 02:30:43;;;;;;;15.25;6.85;;;;;;;6.41;100.00;102193.56;5445113;26;20393;-86
2024/04/11 02:33:13;;;;;;;15.43;6.80;;;;;;;6.45;100.00;102192.09;5444789;26;20399;-86
2024/04/11 02:35:42;;;;;;;14.23;6.70;;;;;;;6.54;100.00;102193.50;5443365;26;20376;-87
2024/04/11 02:38:13;;;;;;;13.70;6.68;;;;;;;6.52;100.00;102179.38;5446440;26;20365;-87
2024/04/11 02:40:43;;;;;;;14.50;6.75;;;;;;;6.58;100.00;102186.59;5441066;26;20364;-86
2024/04/11 02:43:13;;;;;;;11.90;6.68;;;;;;;6.66;100.00;102179.28;5439622;26;20384;-86
2024/04/11 02:45:41;;;;;;;13.70;6.50;;;;;;;6.60;100.00;102176.41;5442391;26;20390;-86
2024/04/11 02:48:11;;;;;;;14.73;6.68;;;;;;;6.59;100.00;102165.81;5438115;26;20368;-86
2024/04/11 02:50:38;;;;;;;15.57;6.97;;;;;;;6.62;100.00;102165.38;5457614;26;20887;-87
2024/04/11 02:53:09;;;;;;;13.38;6.57;;;;;;;6.66;100.00;102166.59;5444327;26;20734;-87
2024/04/11 02:55:38;;;;;;;13.68;6.40;;;;;;;6.72;100.00;102156.78;5444157;26;20372;-86
2024/04/11 02:58:10;;;;;;;12.32;6.22;;;;;;;6.69;100.00;102158.03;5446024;26;20372;-86
2024/04/11 03:00:38;;;;;;;14.63;6.60;;;;;;;6.71;100.00;102157.81;5469835;26;20368;-86
2024/04/11 03:03:08;;;;;;;11.20;6.32;;;;;;;6.74;100.00;102165.50;5445588;26;20891;-87
2024/04/11 03:05:36;;;;;;;12.10;6.27;;;;;;;6.72;100.00;102163.00;5446203;26;20365;-89
2024/04/11 03:08:07;;;;;;;15.65;6.13;;;;;;;6.76;100.00;102156.13;5447478;26;20738;-87
2024/04/11 03:10:36;;;;;;;11.38;5.95;;;;;;;6.83;100.00;102152.56;5446845;26;20364;-87
2024/04/11 03:13:06;;;;;;;12.25;6.10;;;;;;;6.86;100.00;102152.94;5448863;26;20920;-85
2024/04/11 03:15:36;;;;;;;14.10;5.80;;;;;;;6.91;100.00;102150.41;5430443;26;20444;-87
2024/04/11 03:18:07;;;;;;;13.63;5.60;;;;;;;6.98;100.00;102145.78;5438491;26;20379;-86
2024/04/11 03:20:35;;;;;;;14.77;5.90;;;;;;;7.03;100.00;102144.28;5440599;26;20413;-86
2024/04/11 03:23:05;;;;;;;10.80;5.50;;;;;;;7.06;100.00;102136.56;5448010;26;20556;-87
2024/04/11 03:25:33;;;;;;;11.73;5.30;;;;;;;7.07;100.00;102138.22;5446337;26;20731;-85
2024/04/11 03:28:03;;;;;;;13.25;5.40;;;;;;;7.09;100.00;102128.00;5445851;26;20375;-85
2024/04/11 03:30:31;;;;;;;10.60;5.30;;;;;;;7.15;100.00;102124.41;5446131;26;20379;-87
2024/04/11 03:33:03;;;;;;;11.25;5.10;;;;;;;7.16;100.00;102119.81;5443826;26;20369;-86
2024/04/11 03:35:32;;;;;;;10.43;5.00;;;;;;;7.17;100.00;102116.06;5444711;26;20959;-86
2024/04/11 03:38:02;;;;;;;11.80;5.25;;;;;;;7.20;100.00;102115.63;5447119;26;21196;-86
2024/04/11 03:40:30;;;;;;;12.55;5.18;;;;;;;7.22;100.00;102115.41;5447611;26;20376;-86
2024/04/11 03:43:00;;;;;;;10.65;4.95;;;;;;;7.27;100.00;102105.56;5447512;26;20384;-86
2024/04/11 03:45:31;;;;;;;11.23;4.85;;;;;;;7.32;100.00;102102.19;5448410;26;20412;-87
2024/04/11 03:48:08;;;;;;;12.90;4.85;;;;;;;7.36;100.00;102107.97;5446527;26;20390;-87
2024/04/11 03:50:35;;;;;;;12.43;4.45;;;;;;;7.44;100.00;102099.56;5475124;26;20729;-86
2024/04/11 03:53:06;;;;;;;10.70;4.63;;;;;;;7.42;100.00;102091.66;5447772;26;20380;-86
2024/04/11 03:55:41;;;;;;;10.50;4.60;;;;;;;7.41;100.00;102084.59;5444988;26;20380;-87
2024/04/11 03:58:11;;;;;;;11.38;4.85;;;;;;;7.47;100.00;102081.00;5447173;26;20372;-87
2024/04/11 04:00:39;;;;;;;10.38;4.10;;;;;;;7.51;100.00;102083.25;5446760;26;20372;-87
2024/04/11 04:03:11;;;;;;;9.02;4.45;;;;;;;7.52;100.00;102076.78;5436884;26;20367;-87
2024/04/11 04:05:40;;;;;;;10.10;4.65;;;;;;;7.54;100.00;102070.09;5445341;26;20392;-86
2024/04/11 04:08:10;;;;;;;10.35;4.88;;;;;;;7.56;100.00;102078.00;5444575;26;20384;-87
2024/04/11 04:10:38;;;;;;;10.02;4.07;;;;;;;7.67;100.00;102085.38;5445268;26;20401;-87
2024/04/11 04:13:09;;;;;;;9.15;4.20;;;;;;;7.64;100.00;102083.94;5439700;26;20406;-86
2024/04/11 04:15:36;;;;;;;13.48;4.03;;;;;;;7.69;100.00;102071.59;5443570;26;20889;-88
2024/04/11 04:18:07;;;;;;;10.63;4.13;;;;;;;7.72;100.00;102073.84;5454702;26;20383;-87
2024/04/11 04:20:42;;;;;;;13.30;4.57;;;;;;;7.79;100.00;102066.47;5448211;26;20396;-88
2024/04/11 04:23:26;;;;;;;10.00;3.90;;;;;;;7.84;100.00;102066.59;5447508;26;20712;-87
2024/04/11 04:25:59;;;;;;;9.15;3.60;;;;;;;7.84;100.00;102053.06;5442701;26;20382;-86
2024/04/11 04:28:31;;;;;;;12.60;4.90;;;;;;;7.89;100.00;102055.91;5433084;26;20380;-87
2024/04/11 04:31:14;;;;;;;15.77;6.20;;;;;;;7.97;100.00;102071.06;5470495;26;20368;-87
2024/04/11 04:33:47;;;;;;;9.40;4.30;;;;;;;7.95;100.00;102063.13;5451339;26;20391;-86
2024/04/11 04:36:20;;;;;;;11.20;4.17;;;;;;;7.99;100.00;102064.31;5449840;26;20415;-86
2024/04/11 04:38:50;;;;;;;10.50;3.75;;;;;;;8.04;100.00;102068.22;5482464;26;20361;-87
2024/04/11 04:41:18;;;;;;;8.88;3.72;;;;;;;8.12;100.00;102054.34;5478799;26;20362;-86
2024/04/11 04:43:53;;;;;;;10.07;3.63;;;;;;;8.09;100.00;102060.25;5481180;26;20370;-86
2024/04/11 04:46:22;;;;;;;8.57;3.47;;;;;;;8.07;100.00;102060.47;5476587;26;20409;-87
2024/04/11 04:48:53;;;;;;;11.57;3.33;;;;;;;8.08;100.00;102055.88;5450218;26;20384;-87
2024/04/11 04:51:24;;;;;;;10.73;3.70;;;;;;;8.10;100.00;102051.06;5448955;26;20374;-86
2024/04/11 04:53:54;;;;;;;8.02;3.35;;;;;;;8.17;100.00;102049.94;5480232;26;20373;-86
2024/04/11 04:56:22;;;;;;;8.73;3.40;;;;;;;8.26;100.00;102049.56;5479077;26;20910;-87
2024/04/11 04:58:55;;;;;;;10.25;3.55;;;;;;;8.33;100.00;102056.56;5482325;26;20365;-87
2024/04/11 05:01:23;;;;;;;10.00;3.10;;;;;;;8.33;100.00;102061.19;5465464;26;20311;-86
2024/04/11 05:03:55;;;;;;;10.82;3.15;;;;;;;8.26;100.00;102053.13;5453148;26;20330;-85
2024/04/11 05:06:26;;;;;;;9.17;3.20;;;;;;;8.33;100.00;102063.88;5477718;26;20365;-86
2024/04/11 05:08:56;;;;;;;9.20;3.10;;;;;;;8.38;100.00;102071.31;5465343;26;20369;-86
2024/04/11 05:11:25;;;;;;;9.13;3.10;;;;;;;8.35;100.00;102064.47;5434964;26;20743;-86
2024/04/11 05:13:57;;;;;;;7.10;2.67;;;;;;;8.40;100.00;102072.75;5483727;26;20391;-87
2024/04/11 05:16:24;;;;;;;9.88;2.88;;;;;;;8.48;100.00;102079.78;5482746;26;20389;-87
2024/04/11 05:18:54;;;;;;;10.80;3.25;;;;;;;8.55;100.00;102079.66;5446253;26;20392;-86
2024/04/11 05:21:24;;;;;;;8.35;2.78;;;;;;;8.55;100.00;102076.94;5434833;26;20395;-87
2024/04/11 05:23:56;;;;;;;7.55;2.63;;;;;;;8.57;100.00;102078.38;5458106;26;20372;-87
2024/04/11 05:26:28;;;;;;;5.80;2.60;;;;;;;8.61;100.00;102060.56;5443264;26;20403;-86
2024/04/11 05:28:57;;;;;;;8.57;3.25;;;;;;;8.64;100.00;102064.72;5440661;26;20875;-86
2024/04/11 05:31:28;;;;;;;7.07;2.63;;;;;;;8.67;100.00;102056.94;5476146;26;20378;-86
2024/04/11 05:34:06;;;;;;;8.33;2.70;;;;;;;8.62;100.00;102045.13;5447297;26;21460;-87
2024/04/11 05:36:36;;;;;;;8.45;2.90;;;;;;;8.62;100.00;102056.81;5482221;26;20396;-87
2024/04/11 05:39:08;;;;;;;8.25;2.85;;;;;;;8.65;100.00;102053.63;5443051;26;20369;-86
2024/04/11 05:41:42;;;;;;;9.57;2.43;;;;;;;8.73;100.00;102065.19;5479926;26;20371;-86
2024/04/11 05:44:12;;;;;;;7.15;2.60;;;;;;;8.75;100.00;102060.38;5463860;26;20387;-86
2024/04/11 05:46:40;;;;;;;9.55;2.75;;;;;;;8.77;100.00;102047.38;5440060;26;20388;-86
2024/04/11 05:49:17;;;;;;;7.88;2.78;;;;;;;8.76;100.00;102057.41;5470647;26;20379;-87
2024/04/11 05:51:45;;;;;;;6.68;2.53;;;;;;;8.75;100.00;102049.50;5470081;25;20358;-86
2024/04/11 05:54:18;;;;;;;9.38;2.60;;;;;;;8.73;100.00;102044.31;5460730;26;20393;-87
2024/04/11 05:56:46;;;;;;;7.53;2.47;;;;;;;8.76;100.00;102043.84;5470999;26;20756;-86
2024/04/11 05:59:16;;;;;;;8.68;2.63;;;;;;;8.83;100.00;102046.44;5473366;26;20377;-87
2024/04/11 06:01:44;;;;;;;7.93;2.50;;;;;;;8.84;100.00;102048.13;5473325;26;20330;-86
2024/04/11 06:04:16;;;;;;;8.02;2.70;;;;;;;8.90;100.00;102047.16;5475608;26;20370;-86
2024/04/11 06:06:44;;;;;;;9.13;2.67;;;;;;;8.92;100.00;102052.34;5441956;26;20361;-86
2024/04/11 06:09:16;;;;;;;7.00;3.05;;;;;;;8.93;100.00;102056.72;5458171;26;20322;-86
2024/04/11 06:11:46;;;;;;;9.25;3.53;;;;;;;9.05;100.00;102059.47;5477346;26;20895;-86
2024/04/11 06:14:16;;;;;;;7.80;2.50;;;;;;;9.07;100.00;102052.72;5473480;26;20374;-87
2024/04/11 06:16:44;;;;;;;7.35;2.50;;;;;;;9.24;100.00;102066.44;5457416;26;20390;-87
2024/04/11 06:19:14;;;;;;;9.90;3.15;;;;;;;9.19;100.00;102067.13;5469023;26;21351;-86
2024/04/11 06:21:47;;;;;;;7.15;2.65;;;;;;;9.18;100.00;102057.34;5471692;26;20382;-87
2024/04/11 06:24:18;;;;;;;9.30;2.58;;;;;;;9.23;100.00;102066.66;5436985;26;20373;-87
2024/04/11 06:26:48;;;;;;;6.47;2.60;;;;;;;9.24;100.00;102063.72;5441964;26;20372;-87
2024/04/11 06:29:22;;;;;;;8.73;2.83;;;;;;;9.28;100.00;102066.75;5464164;26;21212;-87
2024/04/11 06:31:49;;;;;;;10.23;2.30;;;;;;;9.36;100.00;102067.25;5473184;26;20337;-87
2024/04/11 06:34:20;;;;;;;6.40;2.72;;;;;;;9.39;100.00;102071.38;5465470;26;20321;-88
2024/04/11 06:36:49;;;;;;;5.63;2.42;;;;;;;9.47;100.00;102073.75;5440454;26;20692;-87
2024/04/11 06:39:19;;;;;;;7.00;2.70;;;;;;;9.61;100.00;102066.16;5400444;26;20353;-85
2024/04/11 06:41:49;;;;;;;8.10;2.50;;;;;;;9.65;100.00;102063.78;5392345;26;20702;-85
2024/04/11 06:44:19;;;;;;;7.43;2.22;;;;;;;9.75;100.00;102065.88;5407504;26;20670;-85
2024/04/11 06:46:49;;;;;;;8.10;2.25;;;;;;;9.68;100.00;102053.25;5401716;26;20333;-85
2024/04/11 06:49:19;;;;;;;10.17;2.70;;;;;;;9.68;100.00;102061.41;5399112;26;20355;-85
2024/04/11 06:51:47;;;;;;;5.88;2.45;;;;;;;9.63;100.00;102072.16;5389235;26;20589;-86
2024/04/11 06:54:18;;;;;;;9.65;2.60;;;;;;;9.65;100.00;102078.22;5400303;26;21787;-85
2024/04/11 06:56:57;;;;;;;8.70;2.47;;;;;;;9.68;100.00;102093.19;5411489;26;20369;-85
2024/04/11 06:59:27;;;;;;;6.45;2.30;;;;;;;9.65;100.00;102089.06;5408737;26;20397;-85
2024/04/11 07:01:58;;;;;;;8.60;2.60;;;;;;;9.62;100.00;102089.53;5404911;26;20430;-88
2024/04/11 07:04:29;;;;;;;6.28;2.33;;;;;;;9.56;100.00;102092.41;5384129;26;20340;-89
2024/04/11 07:06:58;;;;;;;7.43;2.20;;;;;;;9.59;100.00;102103.59;5407865;26;20329;-84
2024/04/11 07:09:37;;;;;;;8.10;2.22;;;;;;;9.62;100.00;102108.56;5407145;26;20959;-87
2024/04/11 07:12:10;;;;;;;8.90;2.47;;;;;;;9.65;100.00;102112.69;5408210;26;20329;-85
2024/04/11 07:14:41;;;;;;;7.55;2.33;;;;;;;9.67;100.00;102118.72;5392121;26;20366;-84
2024/04/11 07:17:11;;;;;;;7.78;2.50;;;;;;;9.72;100.00;102107.94;5402529;26;20337;-85
2024/04/11 07:19:42;;;;;;;5.90;2.05;;;;;;;9.79;100.00;102110.53;5403759;26;20387;-85
2024/04/11 07:22:10;;;;;;;7.32;2.20;;;;;;;9.74;100.00;102108.56;5403844;26;20332;-86
2024/04/11 07:24:40;;;;;;;7.03;2.25;;;;;;;9.81;100.00;102105.72;5417530;26;21129;-85
2024/04/11 07:27:17;;;;;;;7.53;2.47;;;;;;;9.91;100.00;102115.97;5387163;26;21046;-85
2024/04/11 07:29:47;;;;;;;7.30;2.17;;;;;;;9.98;100.00;102119.38;5380193;26;20344;-86
2024/04/11 07:32:17;;;;;;;7.57;2.30;;;;;;;10.11;100.00;102121.00;5411873;26;20878;-85
2024/04/11 07:34:47;;;;;;;8.90;2.50;;;;;;;10.14;100.00;102123.25;5406305;26;20352;-85
2024/04/11 07:37:17;;;;;;;7.93;2.30;;;;;;;10.29;100.00;102129.00;5431979;26;20338;-84
2024/04/11 07:39:49;;;;;;;8.80;2.43;;;;;;;10.38;100.00;102127.56;5381228;26;20422;-85
2024/04/11 07:42:31;;;;;;;8.88;2.42;;;;;;;10.31;100.00;102135.00;5404167;26;20850;-86
2024/04/11 07:45:07;;;;;;;7.30;2.20;;;;;;;10.43;100.00;102136.91;5370467;26;20323;-86
2024/04/11 07:47:37;;;;;;;8.07;2.35;;;;;;;10.41;100.00;102145.28;5440895;26;20329;-88
2024/04/11 07:50:08;;;;;;;9.73;2.78;;;;;;;10.32;100.00;102144.81;5406540;26;20329;-86
2024/04/11 07:52:37;;;;;;;8.57;2.30;;;;;;;10.31;100.00;102142.34;5404686;26;20871;-87
2024/04/11 07:55:08;;;;;;;7.43;2.20;;;;;;;10.25;100.00;102151.47;5411775;26;20334;-87
2024/04/11 07:57:42;;;;;;;8.00;2.35;;;;;;;10.24;100.00;102152.56;5368782;26;20739;-87
2024/04/11 08:00:20;;;;;;;9.37;2.40;;;;;;;10.14;100.00;102153.16;5406340;26;22271;-87
2024/04/11 08:02:48;;;;;;;7.85;2.30;;;;;;;10.09;100.00;102150.34;5413338;26;20337;-86
2024/04/11 08:05:18;;;;;;;7.32;2.13;;;;;;;10.02;100.00;102158.63;5384134;26;21260;-87
2024/04/11 08:07:46;;;;;;;7.33;2.40;;;;;;;9.85;100.00;102155.81;5408359;26;20409;-86
2024/04/11 08:10:20;;;;;;;8.15;2.53;;;;;;;9.91;100.00;102157.56;5399025;26;20350;-85
2024/04/11 08:12:50;;;;;;;9.50;2.88;;;;;;;9.76;100.00;102157.25;5401315;26;20334;-87
2024/04/11 08:15:20;;;;;;;8.23;2.30;;;;;;;9.63;100.00;102156.44;5409091;26;20330;-86
2024/04/11 08:17:48;;;;;;;8.85;2.80;;;;;;;9.54;100.00;102163.28;5403678;26;22521;-85
2024/04/11 08:20:19;;;;;;;9.18;2.70;;;;;;;9.61;100.00;102169.44;5409364;26;20343;-85
2024/04/11 08:22:47;;;;;;;7.90;2.70;;;;;;;9.50;100.00;102162.09;5420010;26;20463;-85
2024/04/11 08:25:17;;;;;;;8.25;2.67;;;;;;;9.41;100.00;102169.78;5427464;26;22109;-85
2024/04/11 08:27:47;;;;;;;10.52;2.90;;;;;;;9.37;100.00;102168.59;5425795;26;21167;-84
2024/04/11 08:30:20;;;;;;;10.97;2.77;;;;;;;9.34;100.00;102164.44;5416870;26;20351;-84
2024/04/11 08:32:47;;;;;;;8.80;2.87;;;;;;;9.43;100.00;102170.38;5366838;26;20348;-87
2024/04/11 08:35:19;;;;;;;9.38;2.70;;;;;;;9.30;100.00;102170.59;5402937;26;20329;-85
2024/04/11 08:37:47;;;;;;;9.55;3.17;;;;;;;9.40;100.00;102172.72;5410061;26;20358;-87
2024/04/11 08:40:17;;;;;;;9.50;2.80;;;;;;;9.27;100.00;102171.91;5349534;26;21120;-85
2024/04/11 08:42:47;;;;;;;8.75;2.92;;;;;;;9.34;100.00;102171.78;5402698;26;20355;-85
2024/04/11 08:45:20;;;;;;;8.73;2.80;;;;;;;9.30;100.00;102170.59;5398319;26;20407;-87
2024/04/11 08:47:48;;;;;;;8.88;2.90;;;;;;;9.35;100.00;102182.41;5402117;26;20382;-85
2024/04/11 08:50:19;;;;;;;9.23;3.00;;;;;;;9.41;100.00;102177.13;5417318;26;20338;-86
2024/04/11 08:52:47;;;;;;;8.75;2.88;;;;;;;9.47;100.00;102174.28;5405131;26;20337;-87
2024/04/11 08:55:17;;;;;;;9.00;2.83;;;;;;;9.66;100.00;102182.31;5388570;26;21258;-84
2024/04/11 08:57:45;;;;;;;11.53;2.90;;;;;;;9.72;100.00;102183.25;5371865;26;21104;-85
2024/04/11 09:00:21;;;;;;;9.73;2.92;;;;;;;9.69;100.00;102185.41;5403310;26;20400;-86
2024/04/11 09:02:52;;;;;;;9.30;3.13;;;;;;;9.93;100.00;102187.25;5396309;26;20409;-87
2024/04/11 09:05:23;;;;;;;10.73;2.88;;;;;;;10.10;100.00;102184.66;5390161;26;20353;-85
2024/04/11 09:07:51;;;;;;;10.80;2.90;;;;;;;10.15;100.00;102193.72;5398410;26;20330;-85
2024/04/11 09:10:21;;;;;;;11.70;3.28;;;;;;;10.13;100.00;102189.59;5387506;26;20351;-86
2024/04/11 09:12:49;;;;;;;7.95;3.00;;;;;;;10.24;100.00;102191.47;5391937;26;20333;-85
2024/04/11 09:15:19;;;;;;;7.95;2.90;;;;;;;10.07;100.00;102206.84;5446340;26;20327;-87
2024/04/11 09:17:46;;;;;;;7.32;2.63;;;;;;;10.21;100.00;102203.66;5406495;26;20352;-85
2024/04/11 09:20:24;;;;;;;9.55;3.10;;;;;;;10.29;100.00;102209.78;5444345;26;20359;-87
2024/04/11 09:22:59;;;;;;;10.27;2.95;;;;;;;10.30;100.00;102206.00;5406012;26;20342;-85
2024/04/11 09:25:30;;;;;;;10.77;2.97;;;;;;;10.43;100.00;102196.78;5421867;26;20365;-85
2024/04/11 09:28:00;;;;;;;10.85;3.58;;;;;;;10.49;100.00;102195.78;5404168;26;20369;-83
2024/04/11 09:30:34;;;;;;;8.60;2.78;;;;;;;10.56;100.00;102204.66;5435855;26;21130;-86
2024/04/11 09:33:04;;;;;;;10.88;3.03;;;;;;;10.61;100.00;102210.19;5432303;26;20365;-85
2024/04/11 09:35:40;;;;;;;11.05;3.20;;;;;;;10.66;100.00;102209.47;5422426;26;21255;-87
2024/04/11 09:38:12;;;;;;;11.80;2.97;;;;;;;10.78;100.00;102214.88;5415601;26;20328;-86
2024/04/11 09:40:50;;;;;;;9.83;2.80;;;;;;;10.79;100.00;102211.91;5410909;26;20338;-86
2024/04/11 09:43:19;;;;;;;8.27;3.05;;;;;;;10.81;100.00;102220.66;5439098;26;20331;-85
2024/04/11 09:45:56;;;;;;;10.25;3.00;;;;;;;10.95;100.00;102221.19;5422690;26;21169;-87
2024/04/11 09:48:25;;;;;;;9.32;3.08;;;;;;;11.01;100.00;102227.56;5445895;26;20359;-86
2024/04/11 09:51:00;;;;;;;8.27;2.95;;;;;;;11.15;100.00;102217.19;5394555;26;20348;-85
2024/04/11 09:53:36;;;;;;;9.88;3.20;;;;;;;11.40;100.00;102223.03;5410443;26;20323;-85
2024/04/11 09:56:08;;;;;;;7.93;3.10;;;;;;;11.49;100.00;102228.94;5431861;26;20364;-87
2024/04/11 09:58:38;;;;;;;9.02;3.08;;;;;;;11.09;100.00;102229.03;5434736;26;20326;-86
2024/04/11 10:01:29;;;;;;;8.80;3.08;;;;;;;11.15;100.00;102228.06;5431027;26;20319;-85
2024/04/11 10:03:59;;;;;;;9.70;3.22;;;;;;;11.28;100.00;102246.00;5443340;26;20328;-86
2024/04/11 10:06:35;;;;;;;7.97;2.97;;;;;;;11.52;100.00;102230.34;5415428;26;20368;-85
2024/04/11 10:09:11;;;;;;;8.27;3.00;;;;;;;11.45;100.00;102246.00;5427270;26;20326;-85
2024/04/11 10:11:46;;;;;;;9.30;3.40;;;;;;;11.32;100.00;102260.78;5402254;26;20330;-85
2024/04/11 10:14:20;;;;;;;10.73;3.13;;;;;;;11.25;100.00;102257.41;5429061;26;20830;-85
2024/04/11 10:16:53;;;;;;;11.80;3.25;;;;;;;10.89;100.00;102263.81;5408377;26;20311;-85
2024/04/11 10:19:26;;;;;;;10.07;3.47;;;;;;;10.89;100.00;102257.56;5440358;26;20319;-85
2024/04/11 10:22:07;;;;;;;10.52;3.10;;;;;;;10.70;100.00;102279.53;5403221;26;20371;-85
2024/04/11 10:24:35;;;;;;;7.70;3.15;;;;;;;10.70;100.00;102270.53;5431301;26;20320;-85
2024/04/11 10:27:18;;;;;;;9.80;3.73;;;;;;;10.59;100.00;102277.66;5434573;26;20995;-85
2024/04/11 10:29:47;;;;;;;8.30;3.20;;;;;;;10.81;100.00;102275.13;5403391;26;20335;-84
2024/04/11 10:32:21;;;;;;;10.75;3.50;;;;;;;10.56;100.00;102269.97;5401978;26;20353;-86
2024/04/11 10:34:56;;;;;;;8.23;3.60;;;;;;;10.46;100.00;102278.75;5430664;26;20977;-85
2024/04/11 10:37:33;;;;;;;9.93;3.40;;;;;;;10.60;100.00;102278.50;5429673;26;20326;-86
2024/04/11 10:40:01;;;;;;;13.00;3.70;;;;;;;10.67;100.00;102280.00;5412017;26;20370;-87
2024/04/11 10:42:39;;;;;;;9.30;3.33;;;;;;;10.71;100.00;102270.28;5424570;26;20363;-86
2024/04/11 10:45:10;;;;;;;10.50;3.65;;;;;;;10.89;100.00;102273.91;5416723;26;20332;-84
2024/04/11 10:47:41;;;;;;;8.40;3.40;;;;;;;10.79;100.00;102281.88;5445526;26;20345;-87
2024/04/11 10:50:09;;;;;;;10.20;3.43;;;;;;;10.66;100.00;102278.38;5430807;26;21063;-85
2024/04/11 10:52:45;;;;;;;11.67;3.60;;;;;;;10.81;100.00;102277.00;5446454;26;20340;-86
2024/04/11 10:55:22;;;;;;;9.00;3.47;;;;;;;10.85;100.00;102273.59;5441276;26;20352;-86
2024/04/11 10:58:08;;;;;;;10.02;3.45;;;;;;;10.73;100.00;102280.97;5444263;26;20330;-85
2024/04/11 11:03:40;;;;;;;8.48;3.47;;;;;;;11.26;100.00;102276.22;5457600;26;20330;-85
2024/04/11 11:06:12;;;;;;;12.15;4.03;;;;;;;11.46;100.00;102270.31;5435633;26;20334;-86
2024/04/11 11:08:48;;;;;;;10.18;3.90;;;;;;;11.89;100.00;102268.81;5438274;26;20363;-85
2024/04/11 11:11:21;;;;;;;11.90;4.17;;;;;;;12.03;100.00;102266.59;5415747;26;20343;-84
2024/04/11 11:13:54;;;;;;;9.38;3.90;;;;;;;12.25;100.00;102266.63;5432176;26;20342;-86
2024/04/11 11:16:25;;;;;;;8.73;3.72;;;;;;;12.45;100.00;102262.50;5430208;26;20359;-86
2024/04/11 11:19:01;;;;;;;6.97;3.65;;;;;;;12.51;100.00;102258.78;5429464;26;22274;-86
2024/04/11 11:21:32;;;;;;;9.55;3.55;;;;;;;12.73;100.00;102257.91;5436935;26;20312;-85
2024/04/11 11:24:06;;;;;;;11.40;4.10;;;;;;;12.73;100.00;102268.84;5410817;26;22763;-86
2024/04/11 11:26:35;;;;;;;9.50;3.95;;;;;;;12.86;100.00;102254.00;5436745;26;20331;-84
2024/04/11 11:29:07;;;;;;;10.88;4.10;;;;;;;12.93;100.00;102255.41;5402303;26;20336;-85
2024/04/11 11:31:36;;;;;;;11.20;4.10;;;;;;;13.01;100.00;102264.22;5441098;26;20326;-85
2024/04/11 11:34:09;;;;;;;9.98;3.50;;;;;;;13.37;100.00;102267.38;5440904;26;20685;-85
2024/04/11 11:36:37;;;;;;;8.63;4.00;;;;;;;12.96;100.00;102267.75;5434425;26;20327;-85
2024/04/11 11:39:17;;;;;;;9.10;3.92;;;;;;;12.79;100.00;102259.66;5408467;26;22131;-87